Time;durP1;ratioP1;P1;durP2;ratioP2;P2;SDS_P1;SDS_P2;PMS_P1;PMS_P2;Temp;Humidity;BMP_temperature;BMP_pressure;BME280_temperature;BME280_humidity;BME280_pressure;Samples;Min_cycle;Max_cycle;Signal;HPM_P1;HPM_P2
2023/05/01 00:00:47;;;;;;;;;;;;;;;19.52;62.96;98326.13;2079614;28;19935;-49
2023/05/01 00:01:48;;;;;;;;;;;;;;;19.52;63.11;98326.94;2079463;28;20391;-52
2023/05/01 00:02:49;;;;;;;;;;;;;;;19.52;62.75;98318.06;2078146;28;19929;-47
2023/05/01 00:03:51;;;;;;;;;;;;;;;19.51;62.99;98325.31;2077398;28;19932;-51
2023/05/01 00:04:53;;;;;;;;;;;;;;;19.52;63.18;98323.44;2078873;28;19933;-50
2023/05/01 00:05:58;;;;;;;;;;;;;;;19.51;62.67;98319.94;2078271;28;20331;-48
2023/05/01 00:06:59;;;;;;;;;;;;;;;19.51;63.06;98319.13;2075745;28;19944;-51
2023/05/01 00:08:00;;;;;;;;;;;;;;;19.51;63.07;98316.44;2079824;28;19929;-50
2023/05/01 00:09:02;;;;;;;;;;;;;;;19.51;62.90;98319.13;2079127;28;20211;-49
2023/05/01 00:10:02;;;;;;;;;;;;;;;19.51;63.08;98322.63;2075733;28;21143;-48
2023/05/01 00:11:04;;;;;;;;;;;;;;;19.52;63.02;98323.44;2084450;28;19932;-49
2023/05/01 00:12:05;;;;;;;;;;;;;;;19.51;62.98;98314.56;2085227;28;20532;-48
2023/05/01 00:13:06;;;;;;;;;;;;;;;19.50;63.06;98312.91;2087319;28;19932;-49
2023/05/01 00:14:06;;;;;;;;;;;;;;;19.49;62.98;98313.94;2084599;28;19929;-50
2023/05/01 00:15:09;;;;;;;;;;;;;;;19.51;62.75;98319.13;2087014;28;20796;-50
2023/05/01 00:16:09;;;;;;;;;;;;;;;19.50;62.75;98321.00;2086865;28;20011;-49
2023/05/01 00:17:11;;;;;;;;;;;;;;;19.50;62.78;98309.38;2089393;28;19925;-49
2023/05/01 00:18:12;;;;;;;;;;;;;;;19.49;62.72;98311.25;2086430;28;19936;-51
2023/05/01 00:19:17;;;;;;;;;;;;;;;19.50;62.81;98312.06;2087915;28;19929;-49
2023/05/01 00:20:18;;;;;;;;;;;;;;;19.49;62.59;98310.44;2087279;28;20443;-51
2023/05/01 00:21:19;;;;;;;;;;;;;;;19.49;63.01;98305.06;2087572;28;19970;-50
2023/05/01 00:22:20;;;;;;;;;;;;;;;19.49;62.99;98305.88;2087275;28;19929;-49
2023/05/01 00:23:21;;;;;;;;;;;;;;;19.49;62.64;98310.44;2085674;28;20547;-48
2023/05/01 00:24:22;;;;;;;;;;;;;;;19.47;62.79;98307.94;2087816;28;19928;-49
2023/05/01 00:25:24;;;;;;;;;;;;;;;19.48;62.83;98300.72;2086908;28;19933;-52
2023/05/01 00:26:28;;;;;;;;;;;;;;;19.49;62.71;98302.38;2086923;28;19937;-50
2023/05/01 00:27:30;;;;;;;;;;;;;;;19.49;62.93;98305.06;2087171;28;19932;-50
2023/05/01 00:28:31;;;;;;;;;;;;;;;19.48;62.93;98303.41;2086944;28;19951;-48
2023/05/01 00:29:32;;;;;;;;;;;;;;;19.49;63.01;98305.06;2086995;28;19998;-50
2023/05/01 00:30:33;;;;;;;;;;;;;;;19.48;63.02;98298.03;2089191;28;19928;-50
2023/05/01 00:31:35;;;;;;;;;;;;;;;19.48;62.58;98300.72;2088064;28;19981;-49
2023/05/01 00:32:37;;;;;;;;;;;;;;;19.48;62.70;98298.84;2088030;28;22082;-48
2023/05/01 00:33:41;;;;;;;;;;;;;;;19.48;62.97;98298.84;2086379;28;20023;-50
2023/05/01 00:34:47;;;;;;;;;;;;;;;19.48;62.66;98298.03;2086845;28;19933;-49
2023/05/01 00:35:48;;;;;;;;;;;;;;;19.47;62.70;98294.50;2086086;28;19928;-48
2023/05/01 00:36:49;;;;;;;;;;;;;;;19.47;62.84;98289.13;2086386;28;19928;-50
2023/05/01 00:37:50;;;;;;;;;;;;;;;19.48;62.88;98298.84;2086311;28;19928;-50
2023/05/01 00:38:51;;;;;;;;;;;;;;;19.49;62.58;98291.59;2086017;28;20438;-49
2023/05/01 00:39:52;;;;;;;;;;;;;;;19.48;62.53;98290.78;2085439;28;19932;-50
2023/05/01 00:40:53;;;;;;;;;;;;;;;19.48;62.81;98289.97;2085142;28;19932;-51
2023/05/01 00:41:55;;;;;;;;;;;;;;;19.48;62.74;98298.03;2086397;28;19980;-48
2023/05/01 00:42:55;;;;;;;;;;;;;;;19.46;62.67;98295.56;2083774;28;19939;-49
2023/05/01 00:43:57;;;;;;;;;;;;;;;19.46;62.66;98298.25;2083205;28;19971;-51
2023/05/01 00:44:57;;;;;;;;;;;;;;;19.46;62.86;98292.88;2084328;28;20368;-49
2023/05/01 00:45:59;;;;;;;;;;;;;;;19.46;62.81;98292.88;2086526;28;19929;-50
2023/05/01 00:47:01;;;;;;;;;;;;;;;19.45;62.91;98291.22;2084813;28;19957;-52
2023/05/01 00:48:02;;;;;;;;;;;;;;;19.46;62.92;98281.28;2084421;28;19971;-51
2023/05/01 00:49:03;;;;;;;;;;;;;;;19.47;62.78;98285.63;2084443;27;19925;-51
2023/05/01 00:50:07;;;;;;;;;;;;;;;19.47;62.85;98283.75;2087529;28;19929;-50
2023/05/01 00:51:08;;;;;;;;;;;;;;;19.46;62.74;98284.78;2086767;28;19951;-52
2023/05/01 00:52:10;;;;;;;;;;;;;;;19.47;62.87;98285.63;2083738;28;20376;-49
2023/05/01 00:53:10;;;;;;;;;;;;;;;19.45;62.50;98283.16;2088267;28;19928;-49
2023/05/01 00:54:12;;;;;;;;;;;;;;;19.47;62.82;98274.84;2085247;27;19929;-52
2023/05/01 00:55:12;;;;;;;;;;;;;;;19.47;62.90;98282.91;2086297;28;19981;-49
2023/05/01 00:56:15;;;;;;;;;;;;;;;19.45;62.79;98280.47;2086256;28;19937;-49
2023/05/01 00:57:15;;;;;;;;;;;;;;;19.46;62.56;98276.72;2086907;28;19924;-48
2023/05/01 00:58:17;;;;;;;;;;;;;;;19.46;62.61;98278.59;2084748;28;19929;-49
2023/05/01 00:59:18;;;;;;;;;;;;;;;19.46;62.77;98279.41;2086052;28;20014;-49
2023/05/01 01:00:21;;;;;;;;;;;;;;;19.45;62.56;98276.97;2084122;28;19928;-48
2023/05/01 01:01:22;;;;;;;;;;;;;;;19.45;62.62;98267.03;2088256;28;20409;-50
2023/05/01 01:02:23;;;;;;;;;;;;;;;19.45;62.86;98274.28;2087188;28;20020;-48
2023/05/01 01:03:24;;;;;;;;;;;;;;;19.45;62.89;98271.59;2086701;28;19978;-50
2023/05/01 01:04:27;;;;;;;;;;;;;;;19.46;62.90;98273.22;2086019;28;19925;-50
2023/05/01 01:05:31;;;;;;;;;;;;;;;19.45;62.62;98268.88;2086116;28;19928;-50
2023/05/01 01:06:34;;;;;;;;;;;;;;;19.45;62.51;98269.72;2088951;28;19986;-52
2023/05/01 01:07:38;;;;;;;;;;;;;;;19.45;62.67;98272.41;2089416;28;20375;-48
2023/05/01 01:08:42;;;;;;;;;;;;;;;19.45;62.60;98269.72;2085957;28;20063;-50
2023/05/01 01:09:48;;;;;;;;;;;;;;;19.43;62.56;98259.16;2087286;28;19940;-51
2023/05/01 01:10:53;;;;;;;;;;;;;;;19.42;62.54;98267.47;2089121;28;19925;-50
2023/05/01 01:11:58;;;;;;;;;;;;;;;19.45;62.72;98271.59;2090214;28;19929;-49
2023/05/01 01:13:03;;;;;;;;;;;;;;;19.42;62.70;98272.84;2090016;28;19928;-49
2023/05/01 01:14:07;;;;;;;;;;;;;;;19.42;62.74;98273.66;2088034;28;19929;-49
2023/05/01 01:15:13;;;;;;;;;;;;;;;19.42;62.89;98273.66;2087753;28;19939;-47
2023/05/01 01:16:17;;;;;;;;;;;;;;;19.43;62.52;98274.47;2089490;28;19928;-47
2023/05/01 01:17:24;;;;;;;;;;;;;;;19.45;62.42;98271.59;2085402;28;20370;-50
2023/05/01 01:18:31;;;;;;;;;;;;;;;19.43;62.72;98263.72;2082516;28;20015;-51
2023/05/01 01:19:49;;;;;;;;;;;;;;;19.42;62.42;98268.28;2088592;28;19932;-51
2023/05/01 01:20:54;;;;;;;;;;;;;;;19.42;62.70;98270.97;2087330;28;19929;-48
2023/05/01 01:22:02;;;;;;;;;;;;;;;19.42;62.40;98268.28;2087959;28;20034;-50
2023/05/01 01:23:29;;;;;;;;;;;;;;;19.42;62.84;98268.28;2087580;28;20210;-51
2023/05/01 01:24:45;;;;;;;;;;;;;;;19.42;62.73;98265.59;2089170;28;19928;-51
2023/05/01 01:26:03;;;;;;;;;;;;;;;19.43;62.29;98269.91;2089016;28;19932;-49
2023/05/01 01:27:19;;;;;;;;;;;;;;;19.42;62.32;98265.59;2086653;28;21023;-49
2023/05/01 01:28:28;;;;;;;;;;;;;;;19.41;62.66;98272.00;2088824;28;20023;-49
2023/05/01 01:29:40;;;;;;;;;;;;;;;19.41;62.61;98265.78;2085410;28;19924;-48
2023/05/01 01:30:51;;;;;;;;;;;;;;;19.42;62.60;98275.53;2087792;28;19948;-52
2023/05/01 01:32:00;;;;;;;;;;;;;;;19.41;62.65;98265.78;2089803;28;20593;-50
2023/05/01 01:33:35;;;;;;;;;;;;;;;19.40;62.76;98273.03;2089305;28;19940;-48
2023/05/01 01:34:44;;;;;;;;;;;;;;;19.40;62.65;98267.66;2061376;28;19930;-48
2023/05/01 01:35:50;;;;;;;;;;;;;;;19.41;62.76;98263.09;2062395;28;19980;-48
2023/05/01 01:36:56;;;;;;;;;;;;;;;19.41;62.24;98265.78;2062337;28;20620;-48
2023/05/01 01:37:59;;;;;;;;;;;;;;;19.40;62.29;98267.66;2060341;28;19929;-49
2023/05/01 01:39:06;;;;;;;;;;;;;;;19.40;62.55;98264.97;2062756;28;19957;-48
2023/05/01 01:40:11;;;;;;;;;;;;;;;19.39;62.48;98274.09;2069420;28;19957;-48
2023/05/01 01:41:13;;;;;;;;;;;;;;;19.40;62.40;98270.34;2089155;28;19954;-48
2023/05/01 01:42:18;;;;;;;;;;;;;;;19.41;62.30;98269.28;2090599;28;20078;-49
2023/05/01 01:43:19;;;;;;;;;;;;;;;19.40;62.57;98264.16;2087578;28;19993;-49
2023/05/01 01:44:25;;;;;;;;;;;;;;;19.39;62.55;98263.34;2088676;28;20410;-48
2023/05/01 01:45:29;;;;;;;;;;;;;;;19.39;62.63;98259.81;2090530;28;19924;-53
2023/05/01 01:46:35;;;;;;;;;;;;;;;19.38;62.44;98263.53;2089174;28;20025;-51
2023/05/01 01:47:39;;;;;;;;;;;;;;;19.38;62.39;98264.34;2086690;28;19935;-50
2023/05/01 01:48:42;;;;;;;;;;;;;;;19.37;62.36;98260.03;2087563;28;19940;-48
2023/05/01 01:49:47;;;;;;;;;;;;;;;19.38;62.63;98263.53;2086404;28;19929;-49
2023/05/01 01:50:49;;;;;;;;;;;;;;;19.37;62.46;98262.72;2089227;28;20009;-48
2023/05/01 01:51:50;;;;;;;;;;;;;;;19.37;62.57;98260.03;2087410;28;19940;-48
2023/05/01 01:52:53;;;;;;;;;;;;;;;19.38;62.64;98256.28;2087902;28;19952;-49
2023/05/01 01:53:56;;;;;;;;;;;;;;;19.39;62.65;98260.66;2085896;28;19932;-50
2023/05/01 01:55:00;;;;;;;;;;;;;;;19.39;62.59;98260.66;2087068;28;20385;-48
2023/05/01 01:56:03;;;;;;;;;;;;;;;19.37;62.39;98254.66;2088953;28;19955;-50
2023/05/01 01:57:05;;;;;;;;;;;;;;;19.38;62.58;98260.84;2087891;28;19928;-49
2023/05/01 01:58:08;;;;;;;;;;;;;;;19.36;62.17;98255.72;2087915;28;20446;-48
2023/05/01 01:59:10;;;;;;;;;;;;;;;19.39;62.34;98251.75;2090926;28;19981;-52
2023/05/01 02:00:12;;;;;;;;;;;;;;;19.36;62.24;98253.03;2085717;28;20345;-52
2023/05/01 02:01:15;;;;;;;;;;;;;;;19.36;62.61;98249.47;2089669;28;19924;-52
2023/05/01 02:02:17;;;;;;;;;;;;;;;19.35;62.35;98251.34;2090210;28;20672;-51
2023/05/01 02:03:19;;;;;;;;;;;;;;;19.36;62.30;98249.47;2087260;28;19928;-49
2023/05/01 02:04:21;;;;;;;;;;;;;;;19.36;62.66;98252.16;2085357;28;20806;-48
2023/05/01 02:05:25;;;;;;;;;;;;;;;19.38;62.39;98250.09;2084863;28;20276;-49
2023/05/01 02:06:27;;;;;;;;;;;;;;;19.37;62.17;98249.28;2085281;28;19932;-50
2023/05/01 02:07:29;;;;;;;;;;;;;;;19.35;62.57;98243.28;2086861;28;19935;-50
2023/05/01 02:08:30;;;;;;;;;;;;;;;19.37;62.35;98243.06;2089079;28;19936;-49
2023/05/01 02:09:34;;;;;;;;;;;;;;;19.36;62.32;98241.41;2086373;28;19936;-50
2023/05/01 02:10:35;;;;;;;;;;;;;;;19.37;62.37;98248.47;2087888;28;20727;-48
2023/05/01 02:11:37;;;;;;;;;;;;;;;19.35;62.26;98243.28;2087336;28;19933;-48
2023/05/01 02:12:38;;;;;;;;;;;;;;;19.36;62.34;98246.78;2085288;28;19928;-47
2023/05/01 02:13:40;;;;;;;;;;;;;;;19.35;62.28;98239.78;2086059;28;19939;-48
2023/05/01 02:14:41;;;;;;;;;;;;;;;19.37;62.51;98248.47;2086374;28;21133;-50
2023/05/01 02:15:44;;;;;;;;;;;;;;;19.34;62.46;98247.03;2087546;28;19986;-49
2023/05/01 02:16:45;;;;;;;;;;;;;;;19.34;62.43;98249.72;2086225;28;20089;-48
2023/05/01 02:17:48;;;;;;;;;;;;;;;19.34;62.56;98244.34;2086515;28;19932;-51
2023/05/01 02:18:49;;;;;;;;;;;;;;;19.35;62.50;98242.47;2086091;28;19936;-51
2023/05/01 02:19:53;;;;;;;;;;;;;;;19.34;62.39;98244.34;2077239;28;20015;-49
2023/05/01 02:20:57;;;;;;;;;;;;;;;19.33;62.28;98242.66;2087731;28;19932;-48
2023/05/01 02:21:59;;;;;;;;;;;;;;;19.34;62.12;98247.03;2086537;28;19932;-49
2023/05/01 02:23:01;;;;;;;;;;;;;;;19.35;62.51;98242.47;2089919;28;19968;-48
2023/05/01 02:24:05;;;;;;;;;;;;;;;19.33;62.55;98242.66;2088478;28;19970;-49
2023/05/01 02:25:07;;;;;;;;;;;;;;;19.34;62.46;98240.81;2085254;28;19924;-48
2023/05/01 02:26:13;;;;;;;;;;;;;;;19.34;62.38;98238.13;2085861;28;19937;-48
2023/05/01 02:27:15;;;;;;;;;;;;;;;19.32;62.23;98243.72;2086594;28;19985;-48
2023/05/01 02:28:21;;;;;;;;;;;;;;;19.33;62.40;98237.28;2086718;28;19959;-50
2023/05/01 02:29:22;;;;;;;;;;;;;;;19.33;62.30;98237.28;2085233;28;19928;-49
2023/05/01 02:30:23;;;;;;;;;;;;;;;19.32;62.55;98238.34;2084943;28;19932;-52
2023/05/01 02:31:24;;;;;;;;;;;;;;;19.33;62.42;98237.28;2086040;28;20027;-51
2023/05/01 02:32:27;;;;;;;;;;;;;;;19.33;62.39;98236.47;2086009;28;20513;-51
2023/05/01 02:33:27;;;;;;;;;;;;;;;19.33;62.57;98237.28;2088566;28;20901;-49
2023/05/01 02:34:29;;;;;;;;;;;;;;;19.32;62.60;98232.97;2088008;28;20608;-49
2023/05/01 02:35:29;;;;;;;;;;;;;;;19.32;62.57;98238.34;2086393;28;19933;-48
2023/05/01 02:36:32;;;;;;;;;;;;;;;19.32;62.41;98234.84;2086028;28;20379;-50
2023/05/01 02:37:33;;;;;;;;;;;;;;;19.33;62.42;98239.97;2086695;28;19925;-48
2023/05/01 02:38:34;;;;;;;;;;;;;;;19.30;62.29;98232.34;2085292;28;19936;-52
2023/05/01 02:39:35;;;;;;;;;;;;;;;19.29;62.18;98236.09;2089741;28;19925;-52
2023/05/01 02:40:38;;;;;;;;;;;;;;;19.29;62.11;98236.09;2085694;27;20061;-48
2023/05/01 02:41:39;;;;;;;;;;;;;;;19.29;62.45;98238.78;2087331;28;19975;-49
2023/05/01 02:42:42;;;;;;;;;;;;;;;19.31;62.31;98236.72;2086882;28;19933;-48
2023/05/01 02:43:44;;;;;;;;;;;;;;;19.31;62.20;98230.50;2086752;28;20447;-52
2023/05/01 02:44:48;;;;;;;;;;;;;;;19.31;62.35;98242.09;2086404;28;19976;-50
2023/05/01 02:45:50;;;;;;;;;;;;;;;19.30;62.37;98231.53;2087818;28;20478;-52
2023/05/01 02:46:53;;;;;;;;;;;;;;;19.29;62.50;98236.09;2088140;28;19929;-51
2023/05/01 02:47:56;;;;;;;;;;;;;;;19.29;62.42;98230.72;2086535;28;20016;-50
2023/05/01 02:49:00;;;;;;;;;;;;;;;19.30;62.30;98237.72;2085970;28;20501;-48
2023/05/01 02:50:00;;;;;;;;;;;;;;;19.29;62.42;98225.34;2085244;28;19932;-51
2023/05/01 02:51:02;;;;;;;;;;;;;;;19.29;62.22;98230.72;2084329;28;19924;-52
2023/05/01 02:52:04;;;;;;;;;;;;;;;19.31;62.28;98230.50;2088814;28;19940;-51
2023/05/01 02:53:06;;;;;;;;;;;;;;;19.28;62.19;98223.69;2087060;28;20036;-49
2023/05/01 02:54:07;;;;;;;;;;;;;;;19.27;62.00;98232.78;2085704;28;19960;-52
2023/05/01 02:55:08;;;;;;;;;;;;;;;19.27;62.42;98230.09;2085258;28;19947;-48
2023/05/01 02:56:09;;;;;;;;;;;;;;;19.28;62.59;98225.53;2088590;28;19933;-48
2023/05/01 02:57:10;;;;;;;;;;;;;;;19.27;62.14;98223.91;2087703;28;21021;-49
2023/05/01 02:58:14;;;;;;;;;;;;;;;19.26;62.39;98220.41;2086274;28;19925;-51
2023/05/01 02:59:15;;;;;;;;;;;;;;;19.25;62.38;98224.13;2086002;28;20792;-49
2023/05/01 03:00:16;;;;;;;;;;;;;;;19.24;62.24;98217.09;2085996;28;19925;-49
2023/05/01 03:01:18;;;;;;;;;;;;;;;19.25;62.54;98217.91;2087806;28;19925;-49
2023/05/01 03:02:18;;;;;;;;;;;;;;;19.24;62.51;98222.47;2085801;28;19932;-47
2023/05/01 03:03:20;;;;;;;;;;;;;;;19.26;62.50;98224.97;2086535;28;19933;-50
2023/05/01 03:04:21;;;;;;;;;;;;;;;19.25;62.40;98224.13;2086722;28;20055;-50
2023/05/01 03:05:23;;;;;;;;;;;;;;;19.26;62.36;98223.09;2087429;28;19932;-50
2023/05/01 03:06:23;;;;;;;;;;;;;;;19.26;61.98;98227.66;2085843;28;20585;-46
2023/05/01 03:07:33;;;;;;;;;;;;;;;19.26;62.27;98219.59;2087679;28;19937;-51
2023/05/01 03:08:35;;;;;;;;;;;;;;;19.24;62.41;98222.47;2085101;28;20405;-50
2023/05/01 03:09:37;;;;;;;;;;;;;;;19.24;62.14;98222.47;2084911;28;19932;-46
2023/05/01 03:10:38;;;;;;;;;;;;;;;19.24;62.48;98219.78;2087224;28;20458;-51
2023/05/01 03:11:39;;;;;;;;;;;;;;;19.24;62.16;98217.09;2084595;28;19939;-47
2023/05/01 03:12:40;;;;;;;;;;;;;;;19.24;62.19;98222.47;2085888;28;19929;-50
2023/05/01 03:13:42;;;;;;;;;;;;;;;19.25;62.12;98224.13;2085608;28;19928;-48
2023/05/01 03:14:42;;;;;;;;;;;;;;;19.25;62.28;98218.75;2085604;28;19929;-46
2023/05/01 03:15:44;;;;;;;;;;;;;;;19.24;62.41;98210.91;2084474;28;20017;-48
2023/05/01 03:16:44;;;;;;;;;;;;;;;19.24;62.48;98214.41;2085044;28;21249;-48
2023/05/01 03:17:46;;;;;;;;;;;;;;;19.24;62.00;98213.59;2085326;28;21689;-47
2023/05/01 03:18:47;;;;;;;;;;;;;;;19.24;62.29;98210.91;2084172;28;19943;-47
2023/05/01 03:19:48;;;;;;;;;;;;;;;19.24;62.25;98209.03;2084875;28;19986;-48
2023/05/01 03:20:52;;;;;;;;;;;;;;;19.24;61.97;98217.09;2084493;28;19982;-46
2023/05/01 03:21:54;;;;;;;;;;;;;;;19.24;62.24;98209.03;2089377;28;19928;-50
2023/05/01 03:22:56;;;;;;;;;;;;;;;19.24;62.28;98206.34;2087684;28;20006;-47
2023/05/01 03:23:57;;;;;;;;;;;;;;;19.22;61.97;98203.03;2086430;28;19935;-50
2023/05/01 03:24:58;;;;;;;;;;;;;;;19.21;62.09;98209.47;2085616;28;20841;-50
2023/05/01 03:25:59;;;;;;;;;;;;;;;19.22;62.19;98208.41;2085636;28;19933;-49
2023/05/01 03:27:00;;;;;;;;;;;;;;;19.20;62.37;98200.59;2085158;28;20015;-50
2023/05/01 03:28:01;;;;;;;;;;;;;;;19.22;62.14;98204.91;2085520;28;19933;-51
2023/05/01 03:29:02;;;;;;;;;;;;;;;19.19;62.41;98208.84;2085794;28;19929;-48
2023/05/01 03:30:04;;;;;;;;;;;;;;;19.19;62.28;98198.94;2086778;28;19950;-47
2023/05/01 03:31:04;;;;;;;;;;;;;;;19.19;62.12;98203.47;2087307;28;19939;-46
2023/05/01 03:32:06;;;;;;;;;;;;;;;19.19;62.25;98200.78;2085867;28;19971;-48
2023/05/01 03:33:06;;;;;;;;;;;;;;;19.19;62.36;98203.47;2089882;28;19974;-48
2023/05/01 03:34:08;;;;;;;;;;;;;;;19.19;62.09;98198.09;2085080;28;19932;-47
2023/05/01 03:35:09;;;;;;;;;;;;;;;19.19;62.00;98203.47;2086613;28;20480;-46
2023/05/01 03:36:10;;;;;;;;;;;;;;;19.19;62.50;98203.47;2085458;28;20437;-47
2023/05/01 03:37:11;;;;;;;;;;;;;;;19.20;62.47;98202.44;2083652;28;19929;-47
2023/05/01 03:38:14;;;;;;;;;;;;;;;19.18;62.52;98199.97;2085796;28;19938;-48
2023/05/01 03:39:15;;;;;;;;;;;;;;;19.19;62.35;98198.09;2086591;28;19933;-48
2023/05/01 03:40:17;;;;;;;;;;;;;;;19.18;62.17;98199.16;2087181;28;20341;-47
2023/05/01 03:41:18;;;;;;;;;;;;;;;19.17;62.10;98205.59;2085748;28;20019;-48
2023/05/01 03:42:19;;;;;;;;;;;;;;;19.17;62.31;98200.19;2085761;28;19932;-48
2023/05/01 03:43:20;;;;;;;;;;;;;;;19.18;62.42;98199.97;2085824;28;19925;-47
2023/05/01 03:44:21;;;;;;;;;;;;;;;19.18;62.50;98197.28;2086362;28;20022;-47
2023/05/01 03:45:21;;;;;;;;;;;;;;;19.18;62.09;98193.78;2083775;28;19925;-48
2023/05/01 03:46:23;;;;;;;;;;;;;;;19.19;62.47;98204.31;2087587;28;19924;-46
2023/05/01 03:47:23;;;;;;;;;;;;;;;19.18;62.09;98199.16;2086866;28;19928;-46
2023/05/01 03:48:25;;;;;;;;;;;;;;;19.18;62.11;98185.72;2085737;28;19932;-49
2023/05/01 03:49:25;;;;;;;;;;;;;;;19.18;62.21;98191.91;2086101;28;19940;-48
2023/05/01 03:50:27;;;;;;;;;;;;;;;19.19;62.13;98193.56;2084732;28;19928;-49
2023/05/01 03:51:27;;;;;;;;;;;;;;;19.19;62.41;98198.94;2085680;28;19929;-49
2023/05/01 03:52:28;;;;;;;;;;;;;;;19.17;62.33;98189.44;2088817;28;19924;-48
2023/05/01 03:53:31;;;;;;;;;;;;;;;19.17;62.10;98190.28;2085964;28;19933;-46
2023/05/01 03:54:32;;;;;;;;;;;;;;;19.16;62.16;98190.47;2086022;28;19932;-47
2023/05/01 03:55:33;;;;;;;;;;;;;;;19.16;62.19;98193.16;2087983;28;19994;-47
2023/05/01 03:56:35;;;;;;;;;;;;;;;19.16;62.29;98191.28;2086678;28;20325;-47
2023/05/01 03:57:36;;;;;;;;;;;;;;;19.16;62.55;98191.28;2085694;28;19929;-48
2023/05/01 03:58:37;;;;;;;;;;;;;;;19.16;62.11;98185.91;2087850;28;19929;-47
2023/05/01 03:59:38;;;;;;;;;;;;;;;19.19;62.10;98184.66;2087716;28;23465;-45
2023/05/01 04:00:40;;;;;;;;;;;;;;;19.16;62.49;98188.59;2086559;28;19932;-48
2023/05/01 04:01:40;;;;;;;;;;;;;;;19.17;62.43;98189.44;2084055;28;19928;-48
2023/05/01 04:02:42;;;;;;;;;;;;;;;19.15;62.44;98186.16;2088120;28;20010;-47
2023/05/01 04:03:43;;;;;;;;;;;;;;;19.16;62.08;98183.22;2087952;28;19929;-48
2023/05/01 04:04:44;;;;;;;;;;;;;;;19.14;62.22;98179.94;2084775;28;19978;-48
2023/05/01 04:05:45;;;;;;;;;;;;;;;19.14;62.46;98188.03;2086163;28;19932;-45
2023/05/01 04:06:47;;;;;;;;;;;;;;;19.14;62.30;98184.50;2085039;28;20683;-48
2023/05/01 04:07:47;;;;;;;;;;;;;;;19.15;62.39;98189.66;2087402;28;19940;-48
2023/05/01 04:08:50;;;;;;;;;;;;;;;19.16;62.54;98187.78;2087012;28;19928;-46
2023/05/01 04:09:51;;;;;;;;;;;;;;;19.14;62.23;98173.75;2085555;28;19928;-51
2023/05/01 04:10:52;;;;;;;;;;;;;;;19.15;62.10;98191.53;2087399;28;20623;-52
2023/05/01 04:11:52;;;;;;;;;;;;;;;19.14;62.31;98184.50;2086895;28;20534;-47
2023/05/01 04:12:54;;;;;;;;;;;;;;;19.13;62.00;98185.53;2085915;28;20105;-49
2023/05/01 04:13:54;;;;;;;;;;;;;;;19.14;62.25;98176.44;2085436;28;19989;-47
2023/05/01 04:14:56;;;;;;;;;;;;;;;19.14;62.00;98177.28;2086327;28;19928;-50
2023/05/01 04:15:58;;;;;;;;;;;;;;;19.14;62.34;98189.88;2086980;28;19925;-49
2023/05/01 04:16:59;;;;;;;;;;;;;;;19.13;62.37;98188.22;2087038;28;19991;-48
2023/05/01 04:18:00;;;;;;;;;;;;;;;19.14;62.00;98182.66;2088399;28;19924;-49
2023/05/01 04:19:01;;;;;;;;;;;;;;;19.13;62.27;98178.28;2087768;28;20369;-48
2023/05/01 04:20:04;;;;;;;;;;;;;;;19.13;62.06;98172.09;2086311;28;19932;-49
2023/05/01 04:21:05;;;;;;;;;;;;;;;19.14;62.47;98174.56;2085051;28;19932;-50
2023/05/01 04:22:06;;;;;;;;;;;;;;;19.14;62.34;98179.13;2084320;28;19978;-48
2023/05/01 04:23:08;;;;;;;;;;;;;;;19.13;61.93;98178.28;2086525;28;20398;-52
2023/05/01 04:24:10;;;;;;;;;;;;;;;19.12;62.08;98171.28;2084458;28;19929;-49
2023/05/01 04:25:11;;;;;;;;;;;;;;;19.13;62.20;98185.53;2083657;28;19970;-51
2023/05/01 04:26:12;;;;;;;;;;;;;;;19.12;62.27;98184.72;2084406;28;19933;-47
2023/05/01 04:27:13;;;;;;;;;;;;;;;19.13;62.18;98188.22;2082981;28;20437;-48
2023/05/01 04:28:13;;;;;;;;;;;;;;;19.11;62.36;98187.59;2086807;28;19975;-51
2023/05/01 04:29:15;;;;;;;;;;;;;;;19.12;62.28;98189.28;2085362;28;19981;-48
2023/05/01 04:30:15;;;;;;;;;;;;;;;19.14;62.30;98189.88;2088014;28;19937;-49
2023/05/01 04:31:17;;;;;;;;;;;;;;;19.12;62.19;98182.03;2085645;28;20379;-48
2023/05/01 04:32:18;;;;;;;;;;;;;;;19.13;62.19;98189.03;2083611;28;20004;-48
2023/05/01 04:33:19;;;;;;;;;;;;;;;19.13;62.35;98190.91;2084228;28;19925;-50
2023/05/01 04:34:19;;;;;;;;;;;;;;;19.13;62.03;98194.41;2085497;28;19924;-47
2023/05/01 04:35:21;;;;;;;;;;;;;;;19.13;62.08;98183.66;2085465;28;19928;-47
2023/05/01 04:36:21;;;;;;;;;;;;;;;19.12;62.37;98195.47;2085043;28;20442;-50
2023/05/01 04:37:23;;;;;;;;;;;;;;;19.12;62.10;98195.47;2085333;28;19929;-46
2023/05/01 04:38:23;;;;;;;;;;;;;;;19.11;61.98;98191.16;2084730;28;19936;-48
2023/05/01 04:39:26;;;;;;;;;;;;;;;19.11;62.42;98188.47;2086131;28;19932;-46
2023/05/01 04:40:27;;;;;;;;;;;;;;;19.12;62.17;98198.16;2086743;28;20499;-49
2023/05/01 04:41:28;;;;;;;;;;;;;;;19.12;62.23;98197.34;2087543;28;19932;-50
2023/05/01 04:42:29;;;;;;;;;;;;;;;19.10;62.17;98188.66;2084898;28;19929;-49
2023/05/01 04:43:31;;;;;;;;;;;;;;;19.11;62.24;98195.66;2086217;28;19929;-46
2023/05/01 04:44:34;;;;;;;;;;;;;;;19.11;62.24;98201.06;2085434;28;20041;-50
2023/05/01 04:45:36;;;;;;;;;;;;;;;19.09;62.24;98195.91;2084091;28;19933;-47
2023/05/01 04:46:36;;;;;;;;;;;;;;;19.11;61.99;98199.22;2086262;28;19928;-49
2023/05/01 04:47:38;;;;;;;;;;;;;;;19.11;61.91;98204.59;2087786;28;19970;-48
2023/05/01 04:48:38;;;;;;;;;;;;;;;19.12;62.30;98200.03;2086866;28;20009;-52
2023/05/01 04:50:59;;;;;;;;;;;;;;;19.11;62.02;98196.53;2085243;28;19932;-50
2023/05/01 04:51:59;;;;;;;;;;;;;;;19.10;61.95;98204.78;2084686;28;19932;-47
2023/05/01 04:53:01;;;;;;;;;;;;;;;19.10;62.10;98199.41;2085030;28;20383;-51
2023/05/01 04:54:01;;;;;;;;;;;;;;;19.09;62.03;98203.97;2085683;28;20344;-51
2023/05/01 04:55:04;;;;;;;;;;;;;;;19.11;62.13;98201.91;2085062;28;19925;-50
2023/05/01 04:56:05;;;;;;;;;;;;;;;19.10;62.04;98204.78;2085022;28;19933;-50
2023/05/01 04:57:06;;;;;;;;;;;;;;;19.10;61.92;98207.47;2088198;28;19925;-50
2023/05/01 04:58:07;;;;;;;;;;;;;;;19.08;61.81;98201.50;2084740;28;19983;-50
2023/05/01 04:59:08;;;;;;;;;;;;;;;19.10;62.25;98205.59;2086554;28;19929;-48
2023/05/01 05:00:09;;;;;;;;;;;;;;;19.11;62.31;98201.91;2087100;28;19994;-49
2023/05/01 05:01:11;;;;;;;;;;;;;;;19.12;62.18;98202.72;2089485;28;19929;-49
2023/05/01 05:02:11;;;;;;;;;;;;;;;19.13;62.06;98205.16;2085644;28;19929;-51
2023/05/01 05:03:13;;;;;;;;;;;;;;;19.13;62.03;98207.84;2086674;28;19933;-48
2023/05/01 05:04:13;;;;;;;;;;;;;;;19.14;62.04;98208.72;2085010;27;20280;-49
2023/05/01 05:05:15;;;;;;;;;;;;;;;19.11;62.15;98207.28;2086828;28;19929;-50
2023/05/01 05:06:15;;;;;;;;;;;;;;;19.10;62.21;98205.59;2086849;28;19932;-51
2023/05/01 05:07:17;;;;;;;;;;;;;;;19.10;61.94;98205.59;2087154;28;19936;-48
2023/05/01 05:08:17;;;;;;;;;;;;;;;19.11;61.79;98207.28;2085980;28;19954;-48
2023/05/01 05:09:18;;;;;;;;;;;;;;;19.10;61.97;98210.16;2084885;28;19975;-50
2023/05/01 05:10:20;;;;;;;;;;;;;;;19.09;61.95;98206.66;2088378;28;20004;-51
2023/05/01 05:11:22;;;;;;;;;;;;;;;19.10;62.04;98212.84;2084709;28;19929;-50
2023/05/01 05:12:22;;;;;;;;;;;;;;;19.12;61.91;98218.84;2086636;28;19983;-51
2023/05/01 05:13:24;;;;;;;;;;;;;;;19.12;61.88;98211.59;2087472;28;19936;-52
2023/05/01 05:14:24;;;;;;;;;;;;;;;19.10;62.04;98208.28;2085556;28;19925;-51
2023/05/01 05:15:26;;;;;;;;;;;;;;;19.10;61.93;98212.84;2084945;28;20800;-52
2023/05/01 05:16:26;;;;;;;;;;;;;;;19.10;62.10;98215.53;2085628;28;19928;-49
2023/05/01 05:17:28;;;;;;;;;;;;;;;19.10;62.22;98215.53;2085698;28;19929;-49
2023/05/01 05:18:28;;;;;;;;;;;;;;;19.10;61.77;98223.59;2085664;28;19978;-52
2023/05/01 05:19:29;;;;;;;;;;;;;;;19.09;62.09;98219.28;2085960;28;19977;-50
2023/05/01 05:20:30;;;;;;;;;;;;;;;19.08;61.97;98213.06;2087676;28;19925;-49
2023/05/01 05:21:31;;;;;;;;;;;;;;;19.10;62.05;98215.53;2085142;28;19982;-49
2023/05/01 05:22:35;;;;;;;;;;;;;;;19.09;61.93;98219.28;2085568;28;19935;-52
2023/05/01 05:23:36;;;;;;;;;;;;;;;19.08;62.10;98215.75;2085128;28;19928;-51
2023/05/01 05:24:37;;;;;;;;;;;;;;;19.10;62.01;98224.44;2085440;28;19954;-52
2023/05/01 05:25:40;;;;;;;;;;;;;;;19.09;61.71;98224.66;2087825;28;19929;-47
2023/05/01 05:26:41;;;;;;;;;;;;;;;19.08;62.03;98223.81;2088207;28;20047;-51